sensor_id;sensor_type;location;lat;lon;timestamp;P1;durP1;ratioP1;P2;durP2;ratioP2
65572;SDS011;52214;50.940;13.996;2022-09-03T00:02:40;4.32;;;1.75;;
65572;SDS011;52214;50.940;13.996;2022-09-03T00:05:20;4.38;;;1.92;;
65572;SDS011;52214;50.940;13.996;2022-09-03T00:08:46;3.63;;;1.77;;
65572;SDS011;52214;50.940;13.996;2022-09-03T00:10:53;4.35;;;1.80;;
65572;SDS011;52214;50.940;13.996;2022-09-03T00:13:28;4.27;;;1.87;;
65572;SDS011;52214;50.940;13.996;2022-09-03T00:15:57;5.07;;;1.80;;
65572;SDS011;52214;50.940;13.996;2022-09-03T00:18:28;4.72;;;2.00;;
65572;SDS011;52214;50.940;13.996;2022-09-03T00:20:57;4.07;;;2.08;;
65572;SDS011;52214;50.940;13.996;2022-09-03T00:23:33;3.70;;;1.83;;
65572;SDS011;52214;50.940;13.996;2022-09-03T00:28:39;4.60;;;2.20;;
65572;SDS011;52214;50.940;13.996;2022-09-03T00:33:50;4.55;;;2.20;;
65572;SDS011;52214;50.940;13.996;2022-09-03T00:36:27;3.60;;;2.00;;
65572;SDS011;52214;50.940;13.996;2022-09-03T00:39:10;4.90;;;2.00;;
65572;SDS011;52214;50.940;13.996;2022-09-03T00:44:22;4.60;;;2.30;;
65572;SDS011;52214;50.940;13.996;2022-09-03T00:47:30;5.90;;;2.20;;
65572;SDS011;52214;50.940;13.996;2022-09-03T00:50:37;4.03;;;2.08;;
65572;SDS011;52214;50.940;13.996;2022-09-03T00:53:43;6.23;;;2.20;;
65572;SDS011;52214;50.940;13.996;2022-09-03T01:02:20;4.03;;;2.20;;
65572;SDS011;52214;50.940;13.996;2022-09-03T01:05:00;4.10;;;2.15;;
65572;SDS011;52214;50.940;13.996;2022-09-03T01:10:04;4.10;;;2.20;;
65572;SDS011;52214;50.940;13.996;2022-09-03T01:13:00;3.80;;;2.03;;
65572;SDS011;52214;50.940;13.996;2022-09-03T01:27:08;4.15;;;2.10;;
65572;SDS011;52214;50.940;13.996;2022-09-03T01:32:31;4.17;;;2.03;;
65572;SDS011;52214;50.940;13.996;2022-09-03T01:35:29;5.22;;;2.00;;
65572;SDS011;52214;50.940;13.996;2022-09-03T01:46:40;4.20;;;2.07;;
65572;SDS011;52214;50.940;13.996;2022-09-03T01:51:49;4.55;;;2.20;;
65572;SDS011;52214;50.940;13.996;2022-09-03T01:54:57;5.68;;;2.63;;
65572;SDS011;52214;50.940;13.996;2022-09-03T02:00:26;4.80;;;2.33;;
65572;SDS011;52214;50.940;13.996;2022-09-03T02:02:55;4.68;;;2.30;;
65572;SDS011;52214;50.940;13.996;2022-09-03T02:05:29;4.53;;;2.20;;
65572;SDS011;52214;50.940;13.996;2022-09-03T02:10:37;4.57;;;2.10;;
65572;SDS011;52214;50.940;13.996;2022-09-03T02:13:10;4.07;;;2.00;;
65572;SDS011;52214;50.940;13.996;2022-09-03T02:15:40;4.15;;;2.05;;
65572;SDS011;52214;50.940;13.996;2022-09-03T02:18:12;4.50;;;2.17;;
65572;SDS011;52214;50.940;13.996;2022-09-03T02:20:41;5.13;;;2.13;;
65572;SDS011;52214;50.940;13.996;2022-09-03T02:23:07;6.13;;;2.10;;
65572;SDS011;52214;50.940;13.996;2022-09-03T02:25:37;4.15;;;2.15;;
65572;SDS011;52214;50.940;13.996;2022-09-03T02:28:06;4.00;;;2.20;;
65572;SDS011;52214;50.940;13.996;2022-09-03T02:30:33;3.57;;;1.80;;
65572;SDS011;52214;50.940;13.996;2022-09-03T02:32:59;3.97;;;2.10;;
65572;SDS011;52214;50.940;13.996;2022-09-03T02:35:25;7.10;;;2.03;;
65572;SDS011;52214;50.940;13.996;2022-09-03T02:37:51;3.67;;;2.00;;
65572;SDS011;52214;50.940;13.996;2022-09-03T02:40:16;3.83;;;2.20;;
65572;SDS011;52214;50.940;13.996;2022-09-03T02:42:42;4.57;;;2.20;;
65572;SDS011;52214;50.940;13.996;2022-09-03T02:47:42;4.20;;;2.20;;
65572;SDS011;52214;50.940;13.996;2022-09-03T02:50:11;5.32;;;2.40;;
65572;SDS011;52214;50.940;13.996;2022-09-03T02:52:37;5.07;;;2.47;;
65572;SDS011;52214;50.940;13.996;2022-09-03T02:55:02;3.93;;;2.00;;
65572;SDS011;52214;50.940;13.996;2022-09-03T02:57:28;4.63;;;2.10;;
65572;SDS011;52214;50.940;13.996;2022-09-03T02:59:54;4.57;;;2.00;;
65572;SDS011;52214;50.940;13.996;2022-09-03T03:02:19;3.53;;;1.97;;
65572;SDS011;52214;50.940;13.996;2022-09-03T03:04:45;4.20;;;1.88;;
65572;SDS011;52214;50.940;13.996;2022-09-03T03:07:10;3.60;;;2.00;;
65572;SDS011;52214;50.940;13.996;2022-09-03T03:09:36;3.80;;;1.87;;
65572;SDS011;52214;50.940;13.996;2022-09-03T03:12:01;4.30;;;2.03;;
65572;SDS011;52214;50.940;13.996;2022-09-03T03:14:27;3.90;;;1.90;;
65572;SDS011;52214;50.940;13.996;2022-09-03T03:16:52;4.23;;;1.90;;
65572;SDS011;52214;50.940;13.996;2022-09-03T03:19:18;4.03;;;2.07;;
65572;SDS011;52214;50.940;13.996;2022-09-03T03:21:43;4.10;;;1.88;;
65572;SDS011;52214;50.940;13.996;2022-09-03T03:24:09;3.73;;;1.90;;
65572;SDS011;52214;50.940;13.996;2022-09-03T03:26:34;3.83;;;1.97;;
65572;SDS011;52214;50.940;13.996;2022-09-03T03:29:00;4.32;;;2.20;;
65572;SDS011;52214;50.940;13.996;2022-09-03T03:31:30;3.40;;;1.90;;
65572;SDS011;52214;50.940;13.996;2022-09-03T03:33:57;3.97;;;2.00;;
65572;SDS011;52214;50.940;13.996;2022-09-03T03:36:25;4.45;;;1.90;;
65572;SDS011;52214;50.940;13.996;2022-09-03T03:38:53;5.20;;;2.05;;
65572;SDS011;52214;50.940;13.996;2022-09-03T03:41:21;3.80;;;2.00;;
65572;SDS011;52214;50.940;13.996;2022-09-03T03:43:54;4.37;;;2.10;;
65572;SDS011;52214;50.940;13.996;2022-09-03T03:46:21;4.25;;;2.20;;
65572;SDS011;52214;50.940;13.996;2022-09-03T03:48:48;4.22;;;2.22;;
65572;SDS011;52214;50.940;13.996;2022-09-03T03:51:15;4.43;;;2.20;;
65572;SDS011;52214;50.940;13.996;2022-09-03T03:53:41;4.70;;;2.13;;
65572;SDS011;52214;50.940;13.996;2022-09-03T03:56:07;5.95;;;2.20;;
65572;SDS011;52214;50.940;13.996;2022-09-03T03:58:35;4.93;;;2.40;;
65572;SDS011;52214;50.940;13.996;2022-09-03T04:01:05;4.25;;;2.13;;
65572;SDS011;52214;50.940;13.996;2022-09-03T04:03:33;5.28;;;2.10;;
65572;SDS011;52214;50.940;13.996;2022-09-03T04:05:59;5.68;;;2.15;;
65572;SDS011;52214;50.940;13.996;2022-09-03T04:08:27;3.80;;;2.00;;
65572;SDS011;52214;50.940;13.996;2022-09-03T04:10:52;4.07;;;1.95;;
65572;SDS011;52214;50.940;13.996;2022-09-03T04:13:18;4.38;;;2.05;;
65572;SDS011;52214;50.940;13.996;2022-09-03T04:15:44;3.80;;;1.93;;
65572;SDS011;52214;50.940;13.996;2022-09-03T04:18:10;4.38;;;2.33;;
65572;SDS011;52214;50.940;13.996;2022-09-03T04:20:35;3.60;;;2.00;;
65572;SDS011;52214;50.940;13.996;2022-09-03T04:23:01;5.10;;;2.05;;
65572;SDS011;52214;50.940;13.996;2022-09-03T04:25:27;5.15;;;2.47;;
65572;SDS011;52214;50.940;13.996;2022-09-03T04:27:53;5.83;;;2.27;;
65572;SDS011;52214;50.940;13.996;2022-09-03T04:30:19;4.20;;;2.00;;
65572;SDS011;52214;50.940;13.996;2022-09-03T04:32:45;3.80;;;2.00;;
65572;SDS011;52214;50.940;13.996;2022-09-03T04:35:21;3.80;;;1.80;;
65572;SDS011;52214;50.940;13.996;2022-09-03T04:37:47;3.95;;;1.95;;
65572;SDS011;52214;50.940;13.996;2022-09-03T04:40:13;3.53;;;1.90;;
65572;SDS011;52214;50.940;13.996;2022-09-03T04:42:39;4.20;;;2.00;;
65572;SDS011;52214;50.940;13.996;2022-09-03T04:45:05;4.60;;;2.20;;
65572;SDS011;52214;50.940;13.996;2022-09-03T04:47:31;4.87;;;2.13;;
65572;SDS011;52214;50.940;13.996;2022-09-03T04:49:57;3.90;;;1.85;;
65572;SDS011;52214;50.940;13.996;2022-09-03T04:52:22;4.73;;;1.80;;
65572;SDS011;52214;50.940;13.996;2022-09-03T04:54:48;5.30;;;2.15;;
65572;SDS011;52214;50.940;13.996;2022-09-03T04:57:14;4.13;;;2.30;;
65572;SDS011;52214;50.940;13.996;2022-09-03T04:59:39;4.60;;;2.20;;
65572;SDS011;52214;50.940;13.996;2022-09-03T05:02:07;4.65;;;2.50;;
65572;SDS011;52214;50.940;13.996;2022-09-03T05:04:34;4.22;;;2.25;;
65572;SDS011;52214;50.940;13.996;2022-09-03T05:06:59;4.60;;;2.27;;
65572;SDS011;52214;50.940;13.996;2022-09-03T05:09:25;3.90;;;2.20;;
65572;SDS011;52214;50.940;13.996;2022-09-03T05:11:50;4.78;;;2.58;;
65572;SDS011;52214;50.940;13.996;2022-09-03T05:14:16;4.80;;;2.30;;
65572;SDS011;52214;50.940;13.996;2022-09-03T05:16:41;4.50;;;2.17;;
65572;SDS011;52214;50.940;13.996;2022-09-03T05:19:07;3.65;;;2.00;;
65572;SDS011;52214;50.940;13.996;2022-09-03T05:21:33;4.80;;;2.23;;
65572;SDS011;52214;50.940;13.996;2022-09-03T05:24:02;4.35;;;2.20;;
65572;SDS011;52214;50.940;13.996;2022-09-03T05:26:30;4.57;;;2.40;;
65572;SDS011;52214;50.940;13.996;2022-09-03T05:28:58;3.93;;;2.00;;
65572;SDS011;52214;50.940;13.996;2022-09-03T05:31:26;4.10;;;2.20;;
65572;SDS011;52214;50.940;13.996;2022-09-03T05:33:53;4.35;;;2.10;;
65572;SDS011;52214;50.940;13.996;2022-09-03T05:36:28;4.60;;;2.22;;
65572;SDS011;52214;50.940;13.996;2022-09-03T05:38:56;4.20;;;2.47;;
65572;SDS011;52214;50.940;13.996;2022-09-03T05:41:22;4.27;;;2.20;;
65572;SDS011;52214;50.940;13.996;2022-09-03T05:43:49;4.20;;;2.15;;
65572;SDS011;52214;50.940;13.996;2022-09-03T05:46:17;4.03;;;2.33;;
65572;SDS011;52214;50.940;13.996;2022-09-03T05:48:43;4.50;;;2.40;;
65572;SDS011;52214;50.940;13.996;2022-09-03T05:51:09;5.65;;;2.10;;
65572;SDS011;52214;50.940;13.996;2022-09-03T05:53:44;3.93;;;1.93;;
65572;SDS011;52214;50.940;13.996;2022-09-03T05:56:11;3.95;;;1.95;;
65572;SDS011;52214;50.940;13.996;2022-09-03T05:58:42;3.97;;;1.90;;
65572;SDS011;52214;50.940;13.996;2022-09-03T06:03:42;5.30;;;2.00;;
65572;SDS011;52214;50.940;13.996;2022-09-03T06:06:08;4.10;;;1.90;;
65572;SDS011;52214;50.940;13.996;2022-09-03T06:08:35;4.20;;;1.75;;
65572;SDS011;52214;50.940;13.996;2022-09-03T06:11:04;3.90;;;1.90;;
65572;SDS011;52214;50.940;13.996;2022-09-03T06:13:31;4.07;;;1.83;;
65572;SDS011;52214;50.940;13.996;2022-09-03T06:15:58;3.28;;;1.70;;
65572;SDS011;52214;50.940;13.996;2022-09-03T06:18:27;8.57;;;1.93;;
65572;SDS011;52214;50.940;13.996;2022-09-03T06:20:54;4.13;;;1.90;;
65572;SDS011;52214;50.940;13.996;2022-09-03T06:23:24;4.32;;;2.13;;
65572;SDS011;52214;50.940;13.996;2022-09-03T06:26:09;5.20;;;1.83;;
65572;SDS011;52214;50.940;13.996;2022-09-03T06:28:37;4.20;;;1.90;;
65572;SDS011;52214;50.940;13.996;2022-09-03T06:31:06;4.10;;;1.73;;
65572;SDS011;52214;50.940;13.996;2022-09-03T06:33:33;3.58;;;1.77;;
65572;SDS011;52214;50.940;13.996;2022-09-03T06:36:01;3.28;;;1.60;;
65572;SDS011;52214;50.940;13.996;2022-09-03T06:38:29;3.30;;;1.70;;
65572;SDS011;52214;50.940;13.996;2022-09-03T06:41:12;3.45;;;1.70;;
65572;SDS011;52214;50.940;13.996;2022-09-03T06:43:38;5.43;;;1.70;;
65572;SDS011;52214;50.940;13.996;2022-09-03T06:46:07;3.53;;;1.80;;
65572;SDS011;52214;50.940;13.996;2022-09-03T06:48:35;3.28;;;1.75;;
65572;SDS011;52214;50.940;13.996;2022-09-03T06:51:05;4.85;;;2.17;;
65572;SDS011;52214;50.940;13.996;2022-09-03T06:53:32;5.15;;;1.90;;
65572;SDS011;52214;50.940;13.996;2022-09-03T06:56:01;3.93;;;1.70;;
65572;SDS011;52214;50.940;13.996;2022-09-03T06:58:38;5.95;;;1.70;;
65572;SDS011;52214;50.940;13.996;2022-09-03T07:01:09;4.03;;;1.70;;
65572;SDS011;52214;50.940;13.996;2022-09-03T07:03:37;7.10;;;1.90;;
65572;SDS011;52214;50.940;13.996;2022-09-03T07:06:08;5.30;;;1.60;;
65572;SDS011;52214;50.940;13.996;2022-09-03T07:08:39;3.27;;;1.60;;
65572;SDS011;52214;50.940;13.996;2022-09-03T07:11:07;4.65;;;1.70;;
65572;SDS011;52214;50.940;13.996;2022-09-03T07:13:35;4.13;;;1.73;;
65572;SDS011;52214;50.940;13.996;2022-09-03T07:16:05;3.53;;;1.70;;
65572;SDS011;52214;50.940;13.996;2022-09-03T07:18:32;3.58;;;1.50;;
65572;SDS011;52214;50.940;13.996;2022-09-03T07:20:59;4.13;;;1.60;;
65572;SDS011;52214;50.940;13.996;2022-09-03T07:23:26;3.10;;;1.30;;
65572;SDS011;52214;50.940;13.996;2022-09-03T07:25:53;3.50;;;1.50;;
65572;SDS011;52214;50.940;13.996;2022-09-03T07:28:19;3.60;;;1.55;;
65572;SDS011;52214;50.940;13.996;2022-09-03T07:30:45;3.15;;;1.38;;
65572;SDS011;52214;50.940;13.996;2022-09-03T07:33:11;3.80;;;1.30;;
65572;SDS011;52214;50.940;13.996;2022-09-03T07:35:36;3.50;;;1.30;;
65572;SDS011;52214;50.940;13.996;2022-09-03T07:38:02;3.73;;;1.50;;
65572;SDS011;52214;50.940;13.996;2022-09-03T07:40:27;3.53;;;1.33;;
65572;SDS011;52214;50.940;13.996;2022-09-03T07:42:56;4.05;;;1.48;;
65572;SDS011;52214;50.940;13.996;2022-09-03T07:45:26;4.75;;;1.50;;
65572;SDS011;52214;50.940;13.996;2022-09-03T07:47:52;3.22;;;1.38;;
65572;SDS011;52214;50.940;13.996;2022-09-03T07:50:18;3.30;;;1.40;;
65572;SDS011;52214;50.940;13.996;2022-09-03T07:52:44;4.22;;;1.50;;
65572;SDS011;52214;50.940;13.996;2022-09-03T07:55:11;3.40;;;1.30;;
65572;SDS011;52214;50.940;13.996;2022-09-03T07:57:37;4.43;;;1.58;;
65572;SDS011;52214;50.940;13.996;2022-09-03T08:00:04;3.63;;;1.40;;
65572;SDS011;52214;50.940;13.996;2022-09-03T08:02:34;3.55;;;1.45;;
65572;SDS011;52214;50.940;13.996;2022-09-03T08:04:59;3.33;;;1.30;;
65572;SDS011;52214;50.940;13.996;2022-09-03T08:07:25;3.83;;;1.30;;
65572;SDS011;52214;50.940;13.996;2022-09-03T08:09:53;3.42;;;1.40;;
65572;SDS011;52214;50.940;13.996;2022-09-03T08:12:19;3.67;;;1.40;;
65572;SDS011;52214;50.940;13.996;2022-09-03T08:14:44;3.50;;;1.30;;
65572;SDS011;52214;50.940;13.996;2022-09-03T08:17:10;3.70;;;1.42;;
65572;SDS011;52214;50.940;13.996;2022-09-03T08:19:36;3.42;;;1.40;;
65572;SDS011;52214;50.940;13.996;2022-09-03T08:22:02;3.60;;;1.30;;
65572;SDS011;52214;50.940;13.996;2022-09-03T08:24:27;3.37;;;1.47;;
65572;SDS011;52214;50.940;13.996;2022-09-03T08:26:53;3.37;;;1.33;;
65572;SDS011;52214;50.940;13.996;2022-09-03T08:29:19;3.15;;;1.20;;
65572;SDS011;52214;50.940;13.996;2022-09-03T08:31:45;4.57;;;1.20;;
65572;SDS011;52214;50.940;13.996;2022-09-03T08:34:11;4.22;;;1.60;;
65572;SDS011;52214;50.940;13.996;2022-09-03T08:36:38;5.10;;;1.25;;
65572;SDS011;52214;50.940;13.996;2022-09-03T08:39:06;5.20;;;1.40;;
65572;SDS011;52214;50.940;13.996;2022-09-03T08:47:10;4.70;;;1.40;;
65572;SDS011;52214;50.940;13.996;2022-09-03T08:49:56;4.35;;;1.33;;
65572;SDS011;52214;50.940;13.996;2022-09-03T08:54:57;3.70;;;1.50;;
65572;SDS011;52214;50.940;13.996;2022-09-03T08:57:35;3.90;;;1.50;;
65572;SDS011;52214;50.940;13.996;2022-09-03T09:00:08;3.97;;;1.40;;
65572;SDS011;52214;50.940;13.996;2022-09-03T09:05:44;3.30;;;1.38;;
65572;SDS011;52214;50.940;13.996;2022-09-03T09:08:27;5.17;;;1.33;;
65572;SDS011;52214;50.940;13.996;2022-09-03T09:11:20;4.28;;;1.30;;
65572;SDS011;52214;50.940;13.996;2022-09-03T09:20:28;3.10;;;1.27;;
65572;SDS011;52214;50.940;13.996;2022-09-03T09:23:05;4.37;;;1.30;;
65572;SDS011;52214;50.940;13.996;2022-09-03T09:25:33;4.88;;;1.70;;
65572;SDS011;52214;50.940;13.996;2022-09-03T09:28:29;3.67;;;1.30;;
65572;SDS011;52214;50.940;13.996;2022-09-03T09:31:00;6.68;;;1.73;;
65572;SDS011;52214;50.940;13.996;2022-09-03T09:33:29;3.42;;;1.30;;
65572;SDS011;52214;50.940;13.996;2022-09-03T09:35:58;4.43;;;1.60;;
65572;SDS011;52214;50.940;13.996;2022-09-03T09:38:31;3.97;;;1.50;;
65572;SDS011;52214;50.940;13.996;2022-09-03T09:43:40;3.50;;;1.30;;
65572;SDS011;52214;50.940;13.996;2022-09-03T09:46:33;3.55;;;1.50;;
65572;SDS011;52214;50.940;13.996;2022-09-03T09:52:16;3.53;;;1.40;;
65572;SDS011;52214;50.940;13.996;2022-09-03T09:54:42;3.30;;;1.40;;
65572;SDS011;52214;50.940;13.996;2022-09-03T09:57:22;4.43;;;1.50;;
65572;SDS011;52214;50.940;13.996;2022-09-03T09:59:49;4.65;;;1.40;;
65572;SDS011;52214;50.940;13.996;2022-09-03T10:02:28;3.88;;;1.20;;
65572;SDS011;52214;50.940;13.996;2022-09-03T10:04:59;3.73;;;1.30;;
65572;SDS011;52214;50.940;13.996;2022-09-03T10:07:39;3.63;;;1.40;;
65572;SDS011;52214;50.940;13.996;2022-09-03T10:10:06;3.83;;;1.30;;
65572;SDS011;52214;50.940;13.996;2022-09-03T10:15:36;3.53;;;1.38;;
65572;SDS011;52214;50.940;13.996;2022-09-03T10:18:14;3.60;;;1.40;;
65572;SDS011;52214;50.940;13.996;2022-09-03T10:24:22;4.53;;;1.40;;
65572;SDS011;52214;50.940;13.996;2022-09-03T10:26:24;3.90;;;1.30;;
65572;SDS011;52214;50.940;13.996;2022-09-03T10:28:58;4.88;;;1.30;;
65572;SDS011;52214;50.940;13.996;2022-09-03T10:34:21;3.08;;;1.30;;
65572;SDS011;52214;50.940;13.996;2022-09-03T10:36:54;4.23;;;1.30;;
65572;SDS011;52214;50.940;13.996;2022-09-03T10:42:53;3.70;;;1.40;;
65572;SDS011;52214;50.940;13.996;2022-09-03T11:06:43;3.95;;;1.40;;
65572;SDS011;52214;50.940;13.996;2022-09-03T11:12:00;3.40;;;1.40;;
65572;SDS011;52214;50.940;13.996;2022-09-03T11:14:41;3.75;;;1.35;;
65572;SDS011;52214;50.940;13.996;2022-09-03T11:17:13;3.20;;;1.40;;
65572;SDS011;52214;50.940;13.996;2022-09-03T11:22:51;3.60;;;1.50;;
65572;SDS011;52214;50.940;13.996;2022-09-03T11:25:20;3.35;;;1.20;;
65572;SDS011;52214;50.940;13.996;2022-09-03T11:33:53;2.90;;;1.13;;
65572;SDS011;52214;50.940;13.996;2022-09-03T11:36:33;3.80;;;1.42;;
65572;SDS011;52214;50.940;13.996;2022-09-03T11:42:02;3.38;;;1.60;;
65572;SDS011;52214;50.940;13.996;2022-09-03T11:44:40;3.83;;;1.30;;
65572;SDS011;52214;50.940;13.996;2022-09-03T11:47:41;3.30;;;1.30;;
65572;SDS011;52214;50.940;13.996;2022-09-03T11:50:18;3.25;;;1.30;;
65572;SDS011;52214;50.940;13.996;2022-09-03T11:52:47;3.03;;;1.40;;
65572;SDS011;52214;50.940;13.996;2022-09-03T11:55:26;3.58;;;1.42;;
65572;SDS011;52214;50.940;13.996;2022-09-03T11:58:28;3.53;;;1.30;;
65572;SDS011;52214;50.940;13.996;2022-09-03T12:01:08;2.92;;;1.35;;
65572;SDS011;52214;50.940;13.996;2022-09-03T12:06:41;3.83;;;1.42;;
65572;SDS011;52214;50.940;13.996;2022-09-03T12:09:29;3.53;;;1.42;;
65572;SDS011;52214;50.940;13.996;2022-09-03T12:14:57;3.30;;;1.48;;
65572;SDS011;52214;50.940;13.996;2022-09-03T12:20:42;3.22;;;1.50;;
65572;SDS011;52214;50.940;13.996;2022-09-03T12:23:11;5.95;;;1.58;;
65572;SDS011;52214;50.940;13.996;2022-09-03T12:25:45;3.43;;;1.47;;
65572;SDS011;52214;50.940;13.996;2022-09-03T12:28:12;4.35;;;1.30;;
65572;SDS011;52214;50.940;13.996;2022-09-03T12:30:43;5.13;;;1.50;;
65572;SDS011;52214;50.940;13.996;2022-09-03T12:33:10;3.90;;;1.60;;
65572;SDS011;52214;50.940;13.996;2022-09-03T12:35:38;3.40;;;1.25;;
65572;SDS011;52214;50.940;13.996;2022-09-03T12:38:04;4.60;;;1.30;;
65572;SDS011;52214;50.940;13.996;2022-09-03T12:40:29;4.82;;;1.45;;
65572;SDS011;52214;50.940;13.996;2022-09-03T12:43:10;3.40;;;1.30;;
65572;SDS011;52214;50.940;13.996;2022-09-03T12:45:42;4.28;;;1.52;;
65572;SDS011;52214;50.940;13.996;2022-09-03T12:48:17;4.55;;;1.20;;
65572;SDS011;52214;50.940;13.996;2022-09-03T12:50:47;3.33;;;1.20;;
65572;SDS011;52214;50.940;13.996;2022-09-03T12:53:16;3.55;;;1.52;;
65572;SDS011;52214;50.940;13.996;2022-09-03T12:55:51;3.10;;;1.20;;
65572;SDS011;52214;50.940;13.996;2022-09-03T12:58:39;3.63;;;1.30;;
65572;SDS011;52214;50.940;13.996;2022-09-03T13:01:31;3.47;;;1.33;;
65572;SDS011;52214;50.940;13.996;2022-09-03T13:04:05;4.20;;;1.40;;
65572;SDS011;52214;50.940;13.996;2022-09-03T13:06:54;3.15;;;1.00;;
65572;SDS011;52214;50.940;13.996;2022-09-03T13:09:27;3.50;;;1.40;;
65572;SDS011;52214;50.940;13.996;2022-09-03T13:11:56;3.03;;;1.27;;
65572;SDS011;52214;50.940;13.996;2022-09-03T13:14:24;4.22;;;1.40;;
65572;SDS011;52214;50.940;13.996;2022-09-03T13:17:05;3.63;;;1.40;;
65572;SDS011;52214;50.940;13.996;2022-09-03T13:20:05;4.20;;;1.38;;
65572;SDS011;52214;50.940;13.996;2022-09-03T13:25:29;3.40;;;1.45;;
65572;SDS011;52214;50.940;13.996;2022-09-03T13:33:56;3.20;;;1.42;;
65572;SDS011;52214;50.940;13.996;2022-09-03T13:36:40;5.33;;;1.40;;
65572;SDS011;52214;50.940;13.996;2022-09-03T13:39:29;4.45;;;1.52;;
65572;SDS011;52214;50.940;13.996;2022-09-03T13:42:05;4.85;;;1.40;;
65572;SDS011;52214;50.940;13.996;2022-09-03T13:47:44;3.33;;;1.40;;
65572;SDS011;52214;50.940;13.996;2022-09-03T13:50:38;5.33;;;1.60;;
65572;SDS011;52214;50.940;13.996;2022-09-03T13:53:17;3.22;;;1.50;;
65572;SDS011;52214;50.940;13.996;2022-09-03T13:55:58;3.38;;;1.40;;
65572;SDS011;52214;50.940;13.996;2022-09-03T14:01:17;3.63;;;1.55;;
65572;SDS011;52214;50.940;13.996;2022-09-03T14:03:56;3.27;;;1.47;;
65572;SDS011;52214;50.940;13.996;2022-09-03T14:06:36;3.83;;;1.52;;
65572;SDS011;52214;50.940;13.996;2022-09-03T14:09:13;3.40;;;1.38;;
65572;SDS011;52214;50.940;13.996;2022-09-03T14:14:48;3.80;;;1.50;;
65572;SDS011;52214;50.940;13.996;2022-09-03T14:17:31;3.27;;;1.50;;
65572;SDS011;52214;50.940;13.996;2022-09-03T14:22:57;3.65;;;1.38;;
65572;SDS011;52214;50.940;13.996;2022-09-03T14:25:25;3.45;;;1.70;;
65572;SDS011;52214;50.940;13.996;2022-09-03T14:27:51;3.88;;;1.45;;
65572;SDS011;52214;50.940;13.996;2022-09-03T14:36:16;3.70;;;1.40;;
65572;SDS011;52214;50.940;13.996;2022-09-03T14:41:52;3.70;;;1.42;;
65572;SDS011;52214;50.940;13.996;2022-09-03T14:47:06;3.22;;;1.25;;
65572;SDS011;52214;50.940;13.996;2022-09-03T14:50:16;3.90;;;1.35;;
65572;SDS011;52214;50.940;13.996;2022-09-03T15:01:09;3.22;;;1.45;;
65572;SDS011;52214;50.940;13.996;2022-09-03T15:09:35;3.90;;;1.30;;
65572;SDS011;52214;50.940;13.996;2022-09-03T15:12:15;2.90;;;1.30;;
65572;SDS011;52214;50.940;13.996;2022-09-03T15:14:45;2.80;;;1.30;;
65572;SDS011;52214;50.940;13.996;2022-09-03T15:20:27;3.05;;;1.27;;
65572;SDS011;52214;50.940;13.996;2022-09-03T15:29:08;3.08;;;1.35;;
65572;SDS011;52214;50.940;13.996;2022-09-03T15:34:32;3.20;;;1.30;;
65572;SDS011;52214;50.940;13.996;2022-09-03T15:37:07;3.25;;;1.30;;
65572;SDS011;52214;50.940;13.996;2022-09-03T15:39:43;3.00;;;1.50;;
65572;SDS011;52214;50.940;13.996;2022-09-03T15:45:14;3.03;;;1.38;;
65572;SDS011;52214;50.940;13.996;2022-09-03T15:50:23;4.67;;;1.30;;
65572;SDS011;52214;50.940;13.996;2022-09-03T15:55:33;3.83;;;1.40;;
65572;SDS011;52214;50.940;13.996;2022-09-03T16:01:51;4.90;;;1.50;;
65572;SDS011;52214;50.940;13.996;2022-09-03T16:04:24;3.40;;;1.50;;
65572;SDS011;52214;50.940;13.996;2022-09-03T16:13:02;4.70;;;1.50;;
65572;SDS011;52214;50.940;13.996;2022-09-03T16:15:35;5.10;;;1.55;;
65572;SDS011;52214;50.940;13.996;2022-09-03T16:18:22;3.83;;;1.33;;
65572;SDS011;52214;50.940;13.996;2022-09-03T16:20:51;2.92;;;1.30;;
65572;SDS011;52214;50.940;13.996;2022-09-03T16:26:54;4.03;;;1.43;;
65572;SDS011;52214;50.940;13.996;2022-09-03T16:29:24;3.40;;;1.70;;
65572;SDS011;52214;50.940;13.996;2022-09-03T16:35:02;3.50;;;1.50;;
65572;SDS011;52214;50.940;13.996;2022-09-03T16:37:47;3.35;;;1.38;;
65572;SDS011;52214;50.940;13.996;2022-09-03T17:04:44;4.20;;;1.70;;
65572;SDS011;52214;50.940;13.996;2022-09-03T17:28:42;3.55;;;1.73;;
65572;SDS011;52214;50.940;13.996;2022-09-03T17:31:48;3.90;;;1.73;;
65572;SDS011;52214;50.940;13.996;2022-09-03T17:37:24;6.97;;;3.70;;
65572;SDS011;52214;50.940;13.996;2022-09-03T17:40:18;19.85;;;11.70;;
65572;SDS011;52214;50.940;13.996;2022-09-03T17:45:50;7.63;;;4.63;;
65572;SDS011;52214;50.940;13.996;2022-09-03T17:51:15;6.60;;;4.00;;
65572;SDS011;52214;50.940;13.996;2022-09-03T17:53:59;4.90;;;2.60;;
65572;SDS011;52214;50.940;13.996;2022-09-03T17:56:41;4.90;;;2.50;;
65572;SDS011;52214;50.940;13.996;2022-09-03T18:04:53;4.50;;;2.10;;
65572;SDS011;52214;50.940;13.996;2022-09-03T18:07:28;4.97;;;2.45;;
65572;SDS011;52214;50.940;13.996;2022-09-03T18:15:58;5.55;;;2.90;;
65572;SDS011;52214;50.940;13.996;2022-09-03T18:18:35;7.10;;;2.60;;
65572;SDS011;52214;50.940;13.996;2022-09-03T18:21:07;3.60;;;2.10;;
65572;SDS011;52214;50.940;13.996;2022-09-03T18:27:50;5.43;;;2.83;;
65572;SDS011;52214;50.940;13.996;2022-09-03T18:30:27;4.18;;;2.72;;
65572;SDS011;52214;50.940;13.996;2022-09-03T18:33:11;6.10;;;3.30;;
65572;SDS011;52214;50.940;13.996;2022-09-03T18:35:56;4.28;;;2.42;;
65572;SDS011;52214;50.940;13.996;2022-09-03T18:38:41;5.63;;;2.70;;
65572;SDS011;52214;50.940;13.996;2022-09-03T18:44:53;6.90;;;4.35;;
65572;SDS011;52214;50.940;13.996;2022-09-03T18:48:45;8.00;;;4.73;;
65572;SDS011;52214;50.940;13.996;2022-09-03T18:57:21;12.60;;;7.20;;
65572;SDS011;52214;50.940;13.996;2022-09-03T19:00:15;8.15;;;5.13;;
65572;SDS011;52214;50.940;13.996;2022-09-03T19:11:54;16.02;;;8.13;;
65572;SDS011;52214;50.940;13.996;2022-09-03T19:17:54;9.73;;;6.17;;
65572;SDS011;52214;50.940;13.996;2022-09-03T19:20:45;8.65;;;4.75;;
65572;SDS011;52214;50.940;13.996;2022-09-03T19:23:41;5.95;;;3.58;;
65572;SDS011;52214;50.940;13.996;2022-09-03T19:26:47;7.00;;;4.32;;
65572;SDS011;52214;50.940;13.996;2022-09-03T19:35:41;10.25;;;5.70;;
65572;SDS011;52214;50.940;13.996;2022-09-03T19:41:35;9.25;;;5.18;;
65572;SDS011;52214;50.940;13.996;2022-09-03T19:44:58;9.40;;;5.38;;
65572;SDS011;52214;50.940;13.996;2022-09-03T19:48:18;8.50;;;5.10;;
65572;SDS011;52214;50.940;13.996;2022-09-03T19:51:29;7.57;;;4.50;;
65572;SDS011;52214;50.940;13.996;2022-09-03T19:54:19;10.38;;;4.70;;
65572;SDS011;52214;50.940;13.996;2022-09-03T19:57:06;10.50;;;5.25;;
65572;SDS011;52214;50.940;13.996;2022-09-03T19:59:53;10.18;;;5.90;;
65572;SDS011;52214;50.940;13.996;2022-09-03T20:02:39;12.90;;;7.60;;
65572;SDS011;52214;50.940;13.996;2022-09-03T20:05:24;10.85;;;6.40;;
65572;SDS011;52214;50.940;13.996;2022-09-03T20:08:09;13.85;;;7.18;;
65572;SDS011;52214;50.940;13.996;2022-09-03T20:10:58;10.50;;;5.90;;
65572;SDS011;52214;50.940;13.996;2022-09-03T20:13:25;11.05;;;5.72;;
65572;SDS011;52214;50.940;13.996;2022-09-03T20:26:49;10.50;;;6.40;;
65572;SDS011;52214;50.940;13.996;2022-09-03T20:29:40;12.48;;;6.38;;
65572;SDS011;52214;50.940;13.996;2022-09-03T20:32:16;10.30;;;5.68;;
65572;SDS011;52214;50.940;13.996;2022-09-03T20:40:50;10.73;;;6.28;;
65572;SDS011;52214;50.940;13.996;2022-09-03T20:46:27;8.82;;;6.22;;
65572;SDS011;52214;50.940;13.996;2022-09-03T20:52:01;9.70;;;5.10;;
65572;SDS011;52214;50.940;13.996;2022-09-03T20:54:33;9.05;;;5.65;;